DLH2271 LFMN-EDDM
Flight info
| Callsign | DLH2271 |
|---|---|
| Flight time | N/A |
| Altitude | 32000 |
| Route | BASIP DCT ANAKI DCT TAGIP DCT GUNGO DCT IVKAL T102 NINUR T101 BETOS BETOS1B |
| Aircraft | A20N/M-SDE2E3FGHIRWXY/LB1 |
Departure
| Time | 2026-05-07 10:07 |
|---|---|
| Airport | Nice-Côte d'Azur Airport (LFMN) |
Arrival
| Time | N/A |
|---|---|
| Airport | Munich Airport (EDDM) |
| Time | Latitude | Longitude | Altitude | Speed | Heading |
|---|---|---|---|---|---|
| 2026-05-07 09:51 | 43.66080 | 7.20702 | 21 ft | 0 kts | 261° |
| 2026-05-07 09:57 | 43.66080 | 7.20704 | 21 ft | 2 kts | 261° |
| 2026-05-07 09:58 | 43.66083 | 7.20735 | 22 ft | 4 kts | 261° |
| 2026-05-07 09:58 | 43.66086 | 7.20762 | 23 ft | 4 kts | 253° |
| 2026-05-07 09:58 | 43.66097 | 7.20788 | 23 ft | 4 kts | 204° |
| 2026-05-07 09:58 | 43.66118 | 7.20792 | 22 ft | 4 kts | 171° |
| 2026-05-07 09:59 | 43.66128 | 7.20790 | 23 ft | 1 kts | 171° |
| 2026-05-07 10:01 | 43.66089 | 7.20799 | 21 ft | 12 kts | 170° |
| 2026-05-07 10:02 | 43.65978 | 7.20822 | 22 ft | 19 kts | 173° |
| 2026-05-07 10:02 | 43.65884 | 7.20846 | 23 ft | 9 kts | 170° |
| 2026-05-07 10:02 | 43.65815 | 7.20863 | 21 ft | 11 kts | 170° |
| 2026-05-07 10:02 | 43.65734 | 7.20844 | 22 ft | 13 kts | 217° |
| 2026-05-07 10:03 | 43.65661 | 7.20745 | 20 ft | 16 kts | 224° |
| 2026-05-07 10:03 | 43.65577 | 7.20630 | 20 ft | 18 kts | 225° |
| 2026-05-07 10:03 | 43.65495 | 7.20508 | 20 ft | 16 kts | 246° |
| 2026-05-07 10:03 | 43.65489 | 7.20447 | 20 ft | 17 kts | 244° |
| 2026-05-07 10:04 | 43.65382 | 7.20360 | 20 ft | 17 kts | 221° |
| 2026-05-07 10:04 | 43.65288 | 7.20291 | 20 ft | 15 kts | 167° |
| 2026-05-07 10:04 | 43.65263 | 7.20314 | 20 ft | 0 kts | 140° |
| 2026-05-07 10:04 | 43.65262 | 7.20314 | 20 ft | 1 kts | 140° |
| 2026-05-07 10:05 | 43.65233 | 7.20351 | 20 ft | 11 kts | 134° |
| 2026-05-07 10:05 | 43.65162 | 7.20453 | 21 ft | 18 kts | 135° |
| 2026-05-07 10:05 | 43.65081 | 7.20549 | 21 ft | 12 kts | 169° |
| 2026-05-07 10:05 | 43.64995 | 7.20469 | 21 ft | 18 kts | 229° |
| 2026-05-07 10:06 | 43.64924 | 7.20370 | 21 ft | 11 kts | 223° |
| 2026-05-07 10:06 | 43.64860 | 7.20285 | 21 ft | 14 kts | 219° |
| 2026-05-07 10:06 | 43.64777 | 7.20309 | 23 ft | 14 kts | 123° |
| 2026-05-07 10:06 | 43.64803 | 7.20428 | 23 ft | 15 kts | 45° |
| 2026-05-07 10:07 | 43.64929 | 7.20599 | 23 ft | 52 kts | 45° |
| 2026-05-07 10:07 | 43.65350 | 7.21178 | 24 ft | 116 kts | 45° |
| 2026-05-07 10:07 | 43.66042 | 7.22135 | 67 ft | 159 kts | 45° |
| 2026-05-07 10:07 | 43.66802 | 7.23209 | 656 ft | 154 kts | 53° |
| 2026-05-07 10:08 | 43.67139 | 7.24503 | 1190 ft | 143 kts | 101° |
| 2026-05-07 10:08 | 43.66714 | 7.25747 | 1615 ft | 149 kts | 123° |
| 2026-05-07 10:08 | 43.66013 | 7.26993 | 1689 ft | 178 kts | 130° |
| 2026-05-07 10:08 | 43.65159 | 7.28366 | 1750 ft | 204 kts | 131° |
| 2026-05-07 10:09 | 43.64172 | 7.29916 | 2160 ft | 223 kts | 124° |
| 2026-05-07 10:09 | 43.63653 | 7.31892 | 3225 ft | 218 kts | 96° |
| 2026-05-07 10:09 | 43.63691 | 7.33997 | 4199 ft | 224 kts | 81° |
| 2026-05-07 10:09 | 43.64057 | 7.36120 | 5055 ft | 231 kts | 72° |
| 2026-05-07 10:10 | 43.64583 | 7.38226 | 5971 ft | 235 kts | 69° |
| 2026-05-07 10:10 | 43.65171 | 7.40364 | 6841 ft | 240 kts | 68° |
| 2026-05-07 10:10 | 43.65770 | 7.42534 | 7723 ft | 243 kts | 68° |
| 2026-05-07 10:10 | 43.66368 | 7.44738 | 8600 ft | 247 kts | 69° |
| 2026-05-07 10:11 | 43.66960 | 7.46959 | 9446 ft | 252 kts | 69° |
| 2026-05-07 10:11 | 43.67567 | 7.49260 | 10269 ft | 258 kts | 69° |
| 2026-05-07 10:11 | 43.68205 | 7.51668 | 10761 ft | 278 kts | 69° |
| 2026-05-07 10:11 | 43.68900 | 7.54276 | 11152 ft | 301 kts | 69° |
| 2026-05-07 10:12 | 43.69650 | 7.57091 | 11505 ft | 324 kts | 69° |
| 2026-05-07 10:12 | 43.70455 | 7.60118 | 11790 ft | 348 kts | 69° |
| 2026-05-07 10:12 | 43.71306 | 7.63329 | 12360 ft | 359 kts | 69° |
| 2026-05-07 10:12 | 43.72166 | 7.66585 | 13240 ft | 362 kts | 69° |
| 2026-05-07 10:13 | 43.73124 | 7.69810 | 14042 ft | 366 kts | 62° |
| 2026-05-07 10:13 | 43.74429 | 7.72801 | 14756 ft | 369 kts | 52° |
| 2026-05-07 10:13 | 43.76074 | 7.75535 | 15469 ft | 372 kts | 46° |
| 2026-05-07 10:13 | 43.77810 | 7.78222 | 16188 ft | 377 kts | 46° |
| 2026-05-07 10:14 | 43.79560 | 7.80954 | 16890 ft | 381 kts | 46° |
| 2026-05-07 10:14 | 43.81325 | 7.83721 | 17591 ft | 386 kts | 46° |
| 2026-05-07 10:14 | 43.83112 | 7.86530 | 18281 ft | 390 kts | 46° |
| 2026-05-07 10:14 | 43.84914 | 7.89365 | 18866 ft | 395 kts | 46° |
| 2026-05-07 10:15 | 43.86744 | 7.92244 | 19444 ft | 400 kts | 46° |
| 2026-05-07 10:15 | 43.88547 | 7.95138 | 20037 ft | 405 kts | 50° |
| 2026-05-07 10:15 | 43.90155 | 7.98385 | 20559 ft | 413 kts | 58° |
| 2026-05-07 10:15 | 43.91568 | 8.01877 | 21121 ft | 418 kts | 59° |
| 2026-05-07 10:16 | 43.93005 | 8.05415 | 21652 ft | 424 kts | 58° |
| 2026-05-07 10:16 | 43.94462 | 8.08986 | 22240 ft | 427 kts | 58° |
| 2026-05-07 10:16 | 43.95935 | 8.12592 | 22811 ft | 431 kts | 58° |
| 2026-05-07 10:16 | 43.97420 | 8.16235 | 23356 ft | 436 kts | 58° |
| 2026-05-07 10:17 | 43.98919 | 8.19919 | 23826 ft | 441 kts | 58° |
| 2026-05-07 10:17 | 44.00436 | 8.23652 | 24278 ft | 445 kts | 58° |
| 2026-05-07 10:17 | 44.01925 | 8.27324 | 24701 ft | 449 kts | 58° |
| 2026-05-07 10:17 | 44.03469 | 8.31134 | 25128 ft | 454 kts | 58° |
| 2026-05-07 10:18 | 44.05019 | 8.34965 | 25549 ft | 458 kts | 58° |
| 2026-05-07 10:18 | 44.06597 | 8.38870 | 25840 ft | 465 kts | 58° |
| 2026-05-07 10:18 | 44.08184 | 8.42804 | 26281 ft | 469 kts | 58° |
| 2026-05-07 10:18 | 44.09783 | 8.46772 | 26668 ft | 473 kts | 59° |
| 2026-05-07 10:19 | 44.11396 | 8.50783 | 27158 ft | 475 kts | 58° |
| 2026-05-07 10:19 | 44.13008 | 8.54798 | 27580 ft | 478 kts | 58° |
| 2026-05-07 10:19 | 44.14638 | 8.58859 | 27910 ft | 482 kts | 59° |
| 2026-05-07 10:19 | 44.16278 | 8.62953 | 28267 ft | 486 kts | 59° |
| 2026-05-07 10:20 | 44.17910 | 8.67029 | 28615 ft | 489 kts | 58° |
| 2026-05-07 10:20 | 44.19787 | 8.70977 | 28943 ft | 490 kts | 49° |
| 2026-05-07 10:20 | 44.22069 | 8.74503 | 29155 ft | 491 kts | 39° |
| 2026-05-07 10:20 | 44.24693 | 8.77548 | 29466 ft | 491 kts | 33° |
| 2026-05-07 10:21 | 44.27397 | 8.80483 | 29808 ft | 494 kts | 33° |
| 2026-05-07 10:21 | 44.30103 | 8.83444 | 30262 ft | 495 kts | 33° |
| 2026-05-07 10:21 | 44.32817 | 8.86421 | 30570 ft | 497 kts | 33° |
| 2026-05-07 10:21 | 44.35546 | 8.89417 | 30868 ft | 500 kts | 33° |
| 2026-05-07 10:22 | 44.38281 | 8.92421 | 31210 ft | 501 kts | 34° |
| 2026-05-07 10:22 | 44.40984 | 8.95395 | 31600 ft | 501 kts | 34° |
| 2026-05-07 10:22 | 44.43722 | 8.98409 | 31821 ft | 500 kts | 34° |
| 2026-05-07 10:23 | 44.49169 | 9.04416 | 32009 ft | 498 kts | 34° |
| 2026-05-07 10:23 | 44.54604 | 9.10421 | 32001 ft | 499 kts | 34° |
| 2026-05-07 10:24 | 44.60073 | 9.16476 | 32006 ft | 501 kts | 34° |
| 2026-05-07 10:24 | 44.65520 | 9.22529 | 31996 ft | 495 kts | 34° |
| 2026-05-07 10:25 | 44.70935 | 9.28556 | 32007 ft | 501 kts | 34° |
| 2026-05-07 10:25 | 44.76353 | 9.34602 | 32000 ft | 499 kts | 34° |
| 2026-05-07 10:26 | 44.81791 | 9.40687 | 32011 ft | 499 kts | 34° |
| 2026-05-07 10:26 | 44.87213 | 9.46771 | 31994 ft | 498 kts | 34° |
| 2026-05-07 10:27 | 44.92643 | 9.52874 | 31996 ft | 499 kts | 34° |
| 2026-05-07 10:27 | 44.98020 | 9.58937 | 31964 ft | 497 kts | 35° |
| 2026-05-07 10:28 | 45.03446 | 9.65065 | 31992 ft | 501 kts | 35° |
| 2026-05-07 10:28 | 45.08877 | 9.71220 | 31987 ft | 500 kts | 35° |
| 2026-05-07 10:29 | 45.14302 | 9.77383 | 31988 ft | 500 kts | 35° |
| 2026-05-07 10:29 | 45.19712 | 9.83542 | 31979 ft | 497 kts | 36° |
| 2026-05-07 10:30 | 45.27768 | 9.92743 | 31993 ft | 498 kts | 36° |
| 2026-05-07 10:30 | 45.33168 | 9.98929 | 31999 ft | 499 kts | 36° |
| 2026-05-07 10:31 | 45.38537 | 10.05098 | 31993 ft | 493 kts | 36° |
| 2026-05-07 10:31 | 45.43845 | 10.11210 | 31990 ft | 495 kts | 36° |
| 2026-05-07 10:32 | 45.49202 | 10.17393 | 31998 ft | 500 kts | 36° |
| 2026-05-07 10:32 | 45.54621 | 10.23662 | 31988 ft | 500 kts | 37° |
| 2026-05-07 10:33 | 45.60012 | 10.29920 | 31984 ft | 500 kts | 37° |
| 2026-05-07 10:33 | 45.65405 | 10.36195 | 31986 ft | 500 kts | 37° |
| 2026-05-07 10:34 | 45.70758 | 10.42436 | 31974 ft | 499 kts | 37° |
| 2026-05-07 10:34 | 45.76121 | 10.48707 | 31969 ft | 500 kts | 37° |
| 2026-05-07 10:35 | 45.81499 | 10.55012 | 31970 ft | 498 kts | 37° |
| 2026-05-07 10:35 | 45.86858 | 10.61312 | 31963 ft | 498 kts | 37° |
| 2026-05-07 10:36 | 45.92199 | 10.67570 | 31965 ft | 492 kts | 35° |
| 2026-05-07 10:36 | 45.97904 | 10.72461 | 31971 ft | 491 kts | 25° |
| 2026-05-07 10:37 | 46.03967 | 10.77111 | 31968 ft | 499 kts | 26° |
| 2026-05-07 10:37 | 46.10092 | 10.81832 | 31989 ft | 498 kts | 26° |
| 2026-05-07 10:38 | 46.16206 | 10.86557 | 32001 ft | 499 kts | 26° |
| 2026-05-07 10:38 | 46.22281 | 10.91253 | 32023 ft | 499 kts | 26° |
| 2026-05-07 10:39 | 46.28399 | 10.96003 | 32041 ft | 499 kts | 26° |
| 2026-05-07 10:39 | 46.34517 | 11.00766 | 32052 ft | 500 kts | 26° |
| 2026-05-07 10:40 | 46.40791 | 11.05010 | 31967 ft | 495 kts | 12° |
| 2026-05-07 10:40 | 46.44148 | 11.05969 | 31978 ft | 490 kts | 1° |
| 2026-05-07 10:40 | 46.47461 | 11.06049 | 31966 ft | 475 kts | 353° |
| 2026-05-07 10:41 | 46.54042 | 11.05567 | 31965 ft | 476 kts | 353° |
| 2026-05-07 10:41 | 46.60632 | 11.05097 | 31969 ft | 474 kts | 353° |
| 2026-05-07 10:42 | 46.67236 | 11.04618 | 31971 ft | 478 kts | 353° |
| 2026-05-07 10:42 | 46.73825 | 11.04139 | 31966 ft | 476 kts | 353° |
| 2026-05-07 10:43 | 46.80420 | 11.03546 | 31978 ft | 469 kts | 349° |
| 2026-05-07 10:43 | 46.86863 | 11.02302 | 31982 ft | 468 kts | 349° |
| 2026-05-07 10:44 | 46.93348 | 11.01193 | 31968 ft | 471 kts | 354° |
| 2026-05-07 10:44 | 46.99907 | 11.01696 | 31975 ft | 475 kts | 3° |
| 2026-05-07 10:45 | 47.06434 | 11.02675 | 31976 ft | 472 kts | 3° |
| 2026-05-07 10:45 | 47.12964 | 11.03650 | 31970 ft | 471 kts | 3° |
| 2026-05-07 10:46 | 47.19481 | 11.04642 | 31964 ft | 471 kts | 3° |
| 2026-05-07 10:46 | 47.25991 | 11.05650 | 31964 ft | 470 kts | 3° |
| 2026-05-07 10:47 | 47.32488 | 11.06636 | 31968 ft | 469 kts | 3° |